Time;durP1;ratioP1;P1;durP2;ratioP2;P2;SDS_P1;SDS_P2;PMS_P1;PMS_P2;Temp;Humidity;BMP_temperature;BMP_pressure;BME280_temperature;BME280_humidity;BME280_pressure;Samples;Min_cycle;Max_cycle;Signal;HPM_P1;HPM_P2
2022/11/15 00:01:45;;;;;;;18.63;8.25;;;7.00;99.90;;;5.97;100.00;97158.47;5093318;28;20786;-76
2022/11/15 00:04:11;;;;;;;23.50;8.67;;;7.10;99.90;;;5.97;100.00;97150.59;5092414;28;20409;-76
2022/11/15 00:06:37;;;;;;;22.95;9.38;;;7.10;99.90;;;5.95;100.00;97157.88;5093171;28;20509;-76
2022/11/15 00:09:03;;;;;;;24.73;9.40;;;7.10;99.90;;;5.99;100.00;97145.09;5093154;28;20485;-76
2022/11/15 00:11:30;;;;;;;17.13;7.95;;;7.10;99.90;;;6.05;100.00;97149.44;5093185;28;20402;-76
2022/11/15 00:13:56;;;;;;;18.87;8.30;;;7.10;99.90;;;6.06;100.00;97145.78;5092191;28;20406;-76
2022/11/15 00:16:23;;;;;;;21.70;8.65;;;7.10;99.90;;;6.06;100.00;97145.78;5092816;28;20405;-76
2022/11/15 00:18:49;;;;;;;20.45;8.10;;;7.10;99.90;;;6.16;100.00;97152.06;5092967;28;20410;-76
2022/11/15 00:21:16;;;;;;;19.50;7.90;;;7.20;99.90;;;6.22;100.00;97138.03;5093110;28;20405;-76
2022/11/15 00:23:42;;;;;;;18.90;7.63;;;7.20;99.90;;;6.33;100.00;97146.13;5091937;28;20393;-75
2022/11/15 00:26:12;;;;;;;20.90;7.38;;;7.30;99.90;;;6.36;100.00;97146.47;5092474;28;20398;-75
2022/11/15 00:28:40;;;;;;;13.80;6.30;;;7.40;99.90;;;6.42;100.00;97134.25;5093018;28;20394;-75
2022/11/15 00:31:13;;;;;;;16.30;6.88;;;7.40;99.90;;;6.39;100.00;97129.47;5092760;28;20405;-76
2022/11/15 00:33:42;;;;;;;13.80;6.72;;;7.50;99.90;;;6.37;100.00;97131.50;5091814;28;20418;-76
2022/11/15 00:36:10;;;;;;;15.30;7.10;;;7.40;99.90;;;6.31;100.00;97129.81;5091811;28;20501;-76
2022/11/15 00:38:38;;;;;;;14.07;6.80;;;7.30;99.90;;;6.37;100.00;97127.06;5074611;28;20759;-76
2022/11/15 00:41:07;;;;;;;15.52;6.85;;;7.40;99.90;;;6.33;100.00;97131.16;5092565;28;20441;-77
2022/11/15 00:43:33;;;;;;;14.43;6.18;;;7.40;99.90;;;6.38;100.00;97130.47;5091604;28;20405;-76
2022/11/15 00:46:02;;;;;;;17.30;6.90;;;7.40;99.90;;;6.31;100.00;97133.22;5092354;28;20402;-76
2022/11/15 00:48:28;;;;;;;19.08;6.93;;;7.40;99.90;;;6.28;100.00;97123.16;5092265;28;20394;-76
2022/11/15 00:50:54;;;;;;;19.15;6.60;;;7.30;99.90;;;6.22;100.00;97121.47;5091432;28;20728;-76
2022/11/15 00:53:20;;;;;;;22.08;7.10;;;7.30;99.90;;;6.15;100.00;97112.91;5091485;28;20422;-77
2022/11/15 00:55:47;;;;;;;23.17;7.00;;;7.30;99.90;;;6.09;100.00;97116.44;5092079;28;20937;-76
2022/11/15 00:58:12;;;;;;;19.48;6.65;;;7.20;99.90;;;6.04;100.00;97114.50;5074204;28;20493;-76
2022/11/15 01:00:38;;;;;;;19.53;6.67;;;7.20;99.90;;;5.99;100.00;97114.38;5073976;28;20555;-76
2022/11/15 01:03:06;;;;;;;18.90;7.13;;;7.10;99.90;;;5.95;100.00;97110.59;5091156;28;20397;-76
2022/11/15 01:05:32;;;;;;;12.73;6.53;;;7.10;99.90;;;5.94;100.00;97102.97;5091615;28;20390;-75
2022/11/15 01:07:58;;;;;;;21.17;8.02;;;7.10;99.90;;;5.84;100.00;97109.53;5092185;28;20398;-75
2022/11/15 01:10:25;;;;;;;13.95;6.30;;;7.00;99.90;;;5.82;100.00;97105.53;5091955;28;20402;-75
2022/11/15 01:12:51;;;;;;;16.65;7.57;;;6.90;99.90;;;5.75;100.00;97100.41;5091218;28;20405;-75
2022/11/15 01:15:18;;;;;;;15.95;6.82;;;6.90;99.90;;;5.69;100.00;97103.94;5091726;28;20425;-75
2022/11/15 01:17:43;;;;;;;13.63;6.63;;;6.80;99.90;;;5.62;100.00;97103.25;5091748;28;20402;-75
2022/11/15 01:20:13;;;;;;;20.38;7.13;;;6.80;99.90;;;5.55;100.00;97102.56;5091759;28;20451;-75
2022/11/15 01:22:39;;;;;;;24.15;7.75;;;6.70;99.90;;;5.50;100.00;97099.78;5091681;28;20423;-75
2022/11/15 01:25:06;;;;;;;22.63;8.15;;;6.60;99.90;;;5.45;100.00;97097.03;5091146;28;20526;-75
2022/11/15 01:27:31;;;;;;;20.67;8.23;;;6.60;99.90;;;5.38;100.00;97097.16;5073691;28;20398;-75
2022/11/15 01:29:57;;;;;;;29.50;8.63;;;6.50;99.90;;;5.36;100.00;97096.56;5091605;28;20402;-75
2022/11/15 01:32:23;;;;;;;28.63;9.20;;;6.50;99.90;;;5.32;100.00;97095.44;5091582;28;20446;-75
2022/11/15 01:34:49;;;;;;;24.35;9.25;;;6.50;99.90;;;5.27;100.00;97091.84;5090431;28;20444;-75
2022/11/15 01:37:16;;;;;;;22.80;8.87;;;6.50;99.90;;;5.22;100.00;97086.47;5091535;28;20406;-75
2022/11/15 01:39:42;;;;;;;20.83;9.00;;;6.40;99.90;;;5.17;100.00;97096.84;5091381;28;20670;-75
2022/11/15 01:42:13;;;;;;;27.63;10.03;;;6.30;99.90;;;5.13;100.00;97095.69;5091521;28;20410;-75
2022/11/15 01:44:47;;;;;;;28.45;9.40;;;6.30;99.90;;;5.11;100.00;97093.31;5090466;28;20395;-75
2022/11/15 01:47:17;;;;;;;23.48;9.32;;;6.30;99.90;;;5.09;100.00;97089.31;5091477;28;20755;-75
2022/11/15 01:49:53;;;;;;;19.98;8.85;;;6.20;99.90;;;5.09;100.00;97097.16;5091270;28;20443;-76
2022/11/15 01:52:24;;;;;;;23.70;9.05;;;6.20;99.90;;;5.06;100.00;97088.72;5091551;28;20984;-75
2022/11/15 01:54:56;;;;;;;25.65;9.50;;;6.30;99.90;;;5.06;100.00;97086.09;5090241;28;20417;-75
2022/11/15 01:57:22;;;;;;;20.55;9.05;;;6.20;99.90;;;5.04;100.00;97087.34;5091262;28;20402;-76
2022/11/15 01:59:48;;;;;;;23.23;9.57;;;6.20;99.90;;;5.05;100.00;97087.13;5091117;28;20496;-75
2022/11/15 02:02:14;;;;;;;20.58;8.32;;;6.20;99.90;;;5.10;100.00;97078.59;5090973;28;20485;-75
2022/11/15 02:04:44;;;;;;;20.63;8.85;;;6.30;99.90;;;5.12;100.00;97078.34;5088571;28;20406;-75
2022/11/15 02:07:15;;;;;;;24.20;9.73;;;6.30;99.90;;;5.14;100.00;97078.94;5090993;28;20935;-75
2022/11/15 02:09:43;;;;;;;18.33;8.57;;;6.30;99.90;;;5.16;100.00;97076.88;5090959;28;20438;-75
2022/11/15 02:12:12;;;;;;;25.23;9.15;;;6.30;99.90;;;5.16;100.00;97074.25;5090822;28;20402;-76
2022/11/15 02:14:41;;;;;;;23.30;8.75;;;6.30;99.90;;;5.14;100.00;97065.81;5089706;28;20421;-75
2022/11/15 02:17:25;;;;;;;20.00;8.60;;;6.30;99.90;;;5.13;100.00;97067.63;5090707;28;20435;-75
2022/11/15 02:20:18;;;;;;;26.55;9.27;;;6.30;99.90;;;5.10;100.00;97064.66;5090830;28;20531;-76
2022/11/15 02:23:08;;;;;;;27.05;9.13;;;6.30;99.90;;;5.09;100.00;97057.81;5090087;28;20382;-75
2022/11/15 02:25:51;;;;;;;19.77;8.65;;;6.20;99.90;;;5.13;100.00;97054.50;5090383;28;20410;-76
2022/11/15 02:28:51;;;;;;;18.60;7.50;;;6.30;99.90;;;5.18;100.00;97059.09;5090559;28;20401;-76
2022/11/15 02:31:26;;;;;;;25.67;9.27;;;6.30;99.90;;;5.20;100.00;97052.59;5072321;28;20424;-76
2022/11/15 02:34:02;;;;;;;18.98;7.88;;;6.30;99.90;;;5.30;100.00;97046.81;5089636;28;20443;-76
2022/11/15 02:36:39;;;;;;;22.30;8.63;;;6.40;99.90;;;5.34;100.00;97042.69;5090411;28;20505;-76
2022/11/15 02:39:18;;;;;;;19.27;7.50;;;6.50;99.90;;;5.43;100.00;97038.72;5090304;28;20399;-75
2022/11/15 02:41:53;;;;;;;14.18;6.88;;;6.50;99.90;;;5.51;100.00;97043.63;5090359;28;20406;-76
2022/11/15 02:44:26;;;;;;;15.52;6.68;;;6.60;99.90;;;5.62;100.00;97039.44;5089515;28;20477;-76
2022/11/15 02:47:14;;;;;;;18.25;7.25;;;6.70;99.90;;;5.58;100.00;97039.06;5090495;28;20396;-76
2022/11/15 02:49:43;;;;;;;13.77;6.72;;;6.70;99.90;;;5.61;100.00;97038.63;5091326;28;20888;-76
2022/11/15 02:52:14;;;;;;;15.27;6.57;;;6.70;99.90;;;5.65;100.00;97029.25;5091317;28;20405;-76
2022/11/15 02:54:40;;;;;;;16.27;6.77;;;6.70;99.90;;;5.61;100.00;97028.13;5089744;28;21019;-76
2022/11/15 02:57:14;;;;;;;17.10;7.05;;;6.70;99.90;;;5.56;100.00;97025.41;5097513;28;20493;-76
2022/11/15 03:00:06;;;;;;;14.55;6.50;;;6.70;99.90;;;5.57;100.00;97023.53;5098004;28;20410;-76
2022/11/15 03:02:54;;;;;;;15.43;6.93;;;6.70;99.90;;;5.50;100.00;97013.16;5093844;28;20969;-75
2022/11/15 03:05:33;;;;;;;20.58;7.85;;;6.60;99.90;;;5.44;100.00;97014.06;5088578;28;20402;-75
2022/11/15 03:08:08;;;;;;;16.90;7.23;;;6.60;99.90;;;5.42;100.00;97013.50;5090298;28;20577;-75
2022/11/15 03:10:48;;;;;;;14.13;6.95;;;6.50;99.90;;;5.44;100.00;97022.75;5090043;28;20390;-75
2022/11/15 03:13:25;;;;;;;18.67;7.25;;;6.50;99.90;;;5.43;100.00;97020.34;5088601;28;20421;-75
2022/11/15 03:16:02;;;;;;;18.70;7.78;;;6.60;99.90;;;5.43;100.00;97010.66;5089556;28;20458;-75
2022/11/15 03:18:33;;;;;;;15.02;6.75;;;6.60;99.90;;;5.50;100.00;97009.72;5089958;28;20394;-75
2022/11/15 03:21:05;;;;;;;13.27;6.45;;;6.50;99.90;;;5.56;100.00;97009.66;5089963;28;20456;-75
2022/11/15 03:23:33;;;;;;;17.70;5.97;;;6.60;99.90;;;5.63;100.00;97005.06;5088900;28;20481;-75
2022/11/15 03:26:00;;;;;;;13.95;5.95;;;6.70;99.90;;;5.64;100.00;97004.03;5110370;22;20471;-74
2022/11/15 03:28:33;;;;;;;15.45;6.15;;;6.70;99.90;;;5.69;100.00;97012.03;5108487;28;20400;-75
2022/11/15 03:31:46;;;;;;;12.55;5.85;;;6.70;99.90;;;5.71;100.00;97009.19;5108842;28;20392;-75
2022/11/15 03:33:52;;;;;;;15.52;6.20;;;6.80;99.90;;;5.69;100.00;97000.72;5109030;28;20416;-74
2022/11/15 03:36:19;;;;;;;13.53;6.20;;;6.80;99.90;;;5.74;100.00;97001.63;5109874;28;20397;-74
2022/11/15 03:38:46;;;;;;;14.40;6.35;;;6.80;99.90;;;5.71;100.00;96996.06;5109956;28;20400;-76
2022/11/15 03:41:20;;;;;;;14.13;6.25;;;6.80;99.90;;;5.67;100.00;96987.03;5109964;28;20396;-76
2022/11/15 03:43:52;;;;;;;16.43;6.57;;;6.80;99.90;;;5.66;100.00;96977.53;5109159;28;20769;-75
2022/11/15 03:46:26;;;;;;;18.73;6.77;;;6.80;99.90;;;5.61;100.00;96977.44;5109596;28;20439;-75
2022/11/15 03:49:02;;;;;;;15.45;6.38;;;6.70;99.90;;;5.59;100.00;96982.91;5109959;28;20380;-75
2022/11/15 03:51:29;;;;;;;11.73;5.80;;;6.70;99.90;;;5.58;100.00;96983.94;5109836;28;20420;-75
2022/11/15 03:53:55;;;;;;;17.27;7.00;;;6.70;99.90;;;5.59;100.00;96977.66;5108979;28;20554;-75
2022/11/15 03:56:21;;;;;;;22.70;7.45;;;6.70;99.90;;;5.63;100.00;96980.66;5109397;28;20393;-75
2022/11/15 03:58:47;;;;;;;15.27;7.00;;;6.70;99.90;;;5.66;100.00;96978.34;5109761;28;20405;-75
2022/11/15 04:01:12;;;;;;;23.98;8.02;;;6.70;99.90;;;5.72;100.00;96979.25;5110115;28;20424;-75
2022/11/15 04:03:38;;;;;;;13.67;6.23;;;6.80;99.90;;;5.82;100.00;96967.13;5108879;28;20397;-75
2022/11/15 04:06:06;;;;;;;16.83;6.90;;;6.90;99.90;;;5.86;100.00;96983.25;5109897;28;20388;-76
2022/11/15 04:08:32;;;;;;;15.48;6.85;;;6.90;99.90;;;5.90;100.00;96976.53;5109732;28;20432;-76
2022/11/15 04:10:58;;;;;;;13.00;6.38;;;7.00;99.90;;;5.97;100.00;96977.19;5109798;28;20439;-75
2022/11/15 04:13:24;;;;;;;17.60;7.20;;;7.00;99.90;;;5.94;100.00;96974.25;5108978;28;20411;-76
2022/11/15 04:15:49;;;;;;;15.57;6.28;;;7.00;99.90;;;6.00;100.00;96973.31;5109534;28;20412;-76
2022/11/15 04:18:15;;;;;;;18.85;6.50;;;7.00;99.90;;;5.98;100.00;96975.38;5109822;28;20406;-76
2022/11/15 04:26:16;;;;;;;15.73;6.25;;;7.10;99.90;;;6.09;100.00;96974.56;5110874;28;20396;-76
2022/11/15 04:31:28;;;;;;;13.50;6.32;;;7.10;99.90;;;6.02;100.00;96979.91;5113499;28;20399;-75
2022/11/15 04:33:54;;;;;;;15.90;6.05;;;7.10;99.90;;;6.04;100.00;96980.50;5112301;28;20401;-76
2022/11/15 04:39:06;;;;;;;12.70;5.70;;;7.10;99.90;;;6.01;100.00;96964.41;5112994;28;20915;-76
2022/11/15 04:41:32;;;;;;;15.77;6.50;;;7.10;99.90;;;5.93;100.00;96968.19;5113115;28;20804;-76
2022/11/15 04:43:58;;;;;;;13.07;6.03;;;7.00;99.90;;;5.88;100.00;96964.63;5112028;28;20396;-75
2022/11/15 04:46:25;;;;;;;12.23;5.70;;;7.00;99.90;;;5.89;100.00;96961.00;5112806;28;20397;-75
2022/11/15 04:48:51;;;;;;;15.90;6.70;;;7.00;99.90;;;5.79;100.00;96951.84;5112883;28;20491;-75
2022/11/15 04:51:18;;;;;;;16.27;6.43;;;6.90;99.90;;;5.73;100.00;96957.22;5113143;27;20829;-76
2022/11/15 04:53:44;;;;;;;15.23;6.10;;;6.80;99.90;;;5.65;100.00;96961.00;5101848;27;20443;-77
2022/11/15 04:56:11;;;;;;;17.43;7.17;;;6.80;99.90;;;5.60;100.00;96953.00;5112397;28;20405;-76
2022/11/15 04:58:37;;;;;;;17.15;6.78;;;6.70;99.90;;;5.57;100.00;96956.09;5112036;27;20404;-76
2022/11/15 05:01:07;;;;;;;14.25;6.60;;;6.70;99.90;;;5.61;100.00;96954.63;5112603;28;20809;-76
2022/11/15 05:06:17;;;;;;;17.60;6.75;;;6.80;99.90;;;5.63;100.00;96942.06;5111705;28;20396;-76
2022/11/15 05:08:43;;;;;;;15.13;6.47;;;6.80;99.90;;;5.64;100.00;96945.50;5112525;28;20478;-75
2022/11/15 05:11:11;;;;;;;19.75;7.53;;;6.80;99.90;;;5.61;100.00;96941.47;5112339;28;20426;-75
2022/11/15 05:13:36;;;;;;;16.75;6.38;;;6.80;99.90;;;5.59;100.00;96935.66;5111406;28;20415;-75
2022/11/15 05:16:03;;;;;;;18.23;7.03;;;6.70;99.90;;;5.54;100.00;96932.13;5111840;28;20446;-76
2022/11/15 05:18:28;;;;;;;18.30;7.18;;;6.70;99.90;;;5.51;100.00;96933.38;5112223;28;20431;-77
2022/11/15 05:20:55;;;;;;;23.37;7.50;;;6.60;99.90;;;5.48;100.00;96940.94;5112179;28;20424;-75
2022/11/15 05:23:21;;;;;;;13.95;6.45;;;6.60;99.90;;;5.44;100.00;96941.38;5111767;28;20411;-76
2022/11/15 05:25:50;;;;;;;18.37;7.30;;;6.60;99.90;;;5.44;100.00;96943.19;5111794;28;20472;-75
2022/11/15 05:28:17;;;;;;;16.90;6.80;;;6.50;99.90;;;5.44;100.00;96943.19;5112090;28;20436;-76
2022/11/15 05:30:43;;;;;;;14.87;6.80;;;6.60;99.90;;;5.48;100.00;96931.22;5112119;28;20739;-76
2022/11/15 05:33:09;;;;;;;20.05;7.05;;;6.60;99.90;;;5.53;100.00;96930.53;5111055;28;20412;-76
2022/11/15 05:35:41;;;;;;;16.02;6.45;;;6.60;99.90;;;5.59;100.00;96925.16;5111377;28;20432;-75
2022/11/15 05:38:07;;;;;;;14.00;6.97;;;6.70;99.90;;;5.61;100.00;96927.56;5111600;28;20384;-76
2022/11/15 05:40:34;;;;;;;18.33;6.80;;;6.70;99.90;;;5.63;100.00;96926.31;5107073;28;20408;-76
2022/11/15 05:43:01;;;;;;;14.13;6.18;;;6.70;99.90;;;5.63;100.00;96920.25;5107761;28;20455;-76
2022/11/15 05:45:29;;;;;;;15.80;6.00;;;6.80;99.90;;;5.63;100.00;96918.44;5110014;28;20409;-76
2022/11/15 05:47:59;;;;;;;12.20;5.85;;;6.70;99.90;;;5.71;100.00;96918.03;5105210;28;20423;-76
2022/11/15 05:50:26;;;;;;;16.27;6.13;;;6.80;99.90;;;5.70;100.00;96910.44;5110816;28;20448;-75
2022/11/15 05:52:52;;;;;;;15.65;6.28;;;6.80;99.90;;;5.69;100.00;96916.69;5110700;28;20874;-75
2022/11/15 05:55:18;;;;;;;17.40;6.80;;;6.80;99.90;;;5.68;100.00;96909.84;5111267;28;20408;-76
2022/11/15 05:57:45;;;;;;;17.52;7.30;;;6.80;99.90;;;5.62;100.00;96911.56;5110785;28;20483;-75
2022/11/15 06:00:12;;;;;;;11.07;6.37;;;6.80;99.90;;;5.62;100.00;96919.47;5110620;28;20395;-76
2022/11/15 06:02:40;;;;;;;15.53;6.47;;;6.70;99.90;;;5.58;100.00;96923.56;5111158;28;20408;-76
2022/11/15 06:05:06;;;;;;;15.70;6.43;;;6.70;99.90;;;5.58;100.00;96920.13;5110597;28;20431;-74
2022/11/15 06:07:32;;;;;;;19.40;6.78;;;6.70;99.90;;;5.55;100.00;96923.22;5101644;28;20444;-74
2022/11/15 06:09:57;;;;;;;22.23;7.72;;;6.70;99.90;;;5.54;100.00;96921.63;5103020;28;20470;-75
2022/11/15 06:12:23;;;;;;;15.00;6.80;;;6.60;99.90;;;5.53;100.00;96920.03;5110913;28;20423;-76
2022/11/15 06:14:49;;;;;;;17.27;6.50;;;6.60;99.90;;;5.50;100.00;96929.16;5110168;28;20852;-76
2022/11/15 06:17:15;;;;;;;13.18;6.47;;;6.60;99.90;;;5.47;100.00;96927.00;5111066;28;20435;-76
2022/11/15 06:19:42;;;;;;;17.45;6.82;;;6.60;99.90;;;5.43;100.00;96926.66;5110992;28;20404;-75
2022/11/15 06:22:09;;;;;;;15.32;7.20;;;6.60;99.90;;;5.41;100.00;96922.69;5111012;28;20396;-76
2022/11/15 06:24:35;;;;;;;17.08;7.43;;;6.50;99.90;;;5.37;100.00;96932.81;5110278;28;20388;-76
2022/11/15 06:27:01;;;;;;;16.73;7.18;;;6.50;99.90;;;5.41;100.00;96925.31;5110542;28;20897;-74
2022/11/15 06:29:26;;;;;;;14.80;6.75;;;6.50;99.90;;;5.48;100.00;96928.59;5110889;28;20396;-74
2022/11/15 06:31:52;;;;;;;14.13;6.50;;;6.60;99.90;;;5.53;100.00;96923.47;5110977;28;20397;-74
2022/11/15 06:34:18;;;;;;;17.90;7.20;;;6.60;99.90;;;5.55;100.00;96925.84;5109941;27;21157;-75
2022/11/15 06:36:46;;;;;;;9.90;6.20;;;6.60;99.90;;;5.60;100.00;96923.34;5110576;28;20412;-75
2022/11/15 06:39:12;;;;;;;13.48;6.80;;;6.70;99.90;;;5.59;100.00;96926.97;5110061;28;20405;-75
2022/11/15 06:41:37;;;;;;;22.02;8.27;;;6.70;99.90;;;5.56;100.00;96924.84;5110008;28;20412;-75
2022/11/15 06:44:03;;;;;;;16.92;7.43;;;6.70;99.90;;;5.62;100.00;96931.78;5109803;28;20423;-75
2022/11/15 06:46:29;;;;;;;22.47;8.93;;;6.70;99.90;;;5.63;100.00;96928.94;5109293;28;20450;-76
2022/11/15 06:48:55;;;;;;;19.60;9.18;;;6.70;99.90;;;5.69;100.00;96928.00;5108241;28;20452;-75
2022/11/15 06:51:21;;;;;;;19.15;7.80;;;6.80;99.90;;;5.74;100.00;96933.34;5109170;28;20412;-75
2022/11/15 06:53:48;;;;;;;22.83;9.50;;;6.80;99.90;;;5.78;100.00;96933.69;5108208;28;20443;-75
2022/11/15 06:56:14;;;;;;;21.40;9.00;;;6.90;99.90;;;5.88;100.00;96928.66;5108943;28;20412;-76
2022/11/15 06:58:40;;;;;;;19.53;8.80;;;6.90;99.90;;;6.04;100.00;96937.66;5110406;28;20461;-75
2022/11/15 07:01:08;;;;;;;21.92;8.93;;;7.10;99.90;;;6.09;100.00;96935.16;5109086;28;20464;-75
2022/11/15 07:03:36;;;;;;;21.63;9.30;;;7.10;99.90;;;6.22;100.00;96940.94;5109686;28;20395;-74
2022/11/15 07:06:02;;;;;;;18.80;8.75;;;7.20;99.90;;;6.27;100.00;96942.84;5106462;28;20410;-75
2022/11/15 07:08:29;;;;;;;20.73;9.07;;;7.30;99.90;;;6.35;100.00;96945.09;5107057;28;20396;-75
2022/11/15 07:10:59;;;;;;;19.95;8.73;;;7.30;99.90;;;6.35;100.00;96941.66;5103732;28;20500;-74
2022/11/15 07:13:26;;;;;;;20.65;8.90;;;7.40;99.90;;;6.28;100.00;96938.38;5101619;28;20410;-75
2022/11/15 07:15:52;;;;;;;17.50;7.75;;;7.30;99.90;;;6.32;100.00;96944.75;5099678;28;20410;-75
2022/11/15 07:18:18;;;;;;;17.65;8.23;;;7.30;99.90;;;6.28;100.00;96938.38;5103378;28;20509;-75
2022/11/15 07:20:44;;;;;;;17.60;7.77;;;7.30;99.90;;;6.31;100.00;96935.28;5103806;28;20830;-75
2022/11/15 07:23:10;;;;;;;13.60;6.18;;;7.30;99.90;;;6.38;100.00;96944.63;5101097;28;20428;-74
2022/11/15 07:25:36;;;;;;;12.13;6.05;;;7.40;99.90;;;6.52;100.00;96940.69;5100904;28;20421;-74
2022/11/15 07:28:04;;;;;;;13.05;6.05;;;7.50;99.90;;;6.66;100.00;96937.75;5100439;28;20414;-74
2022/11/15 07:30:30;;;;;;;17.25;6.30;;;7.60;99.90;;;6.65;100.00;96946.69;5105376;28;20394;-74
2022/11/15 07:32:57;;;;;;;20.60;7.22;;;7.70;99.90;;;6.71;100.00;96943.09;5101966;28;20416;-75
2022/11/15 07:35:24;;;;;;;18.67;6.75;;;7.70;99.90;;;6.78;100.00;96938.47;5101211;28;20759;-74
2022/11/15 07:37:55;;;;;;;14.20;5.85;;;7.80;99.90;;;6.83;100.00;96931.50;5103115;28;20418;-76
2022/11/15 07:40:21;;;;;;;13.35;5.10;;;7.80;99.90;;;7.03;100.00;96930.22;5106350;28;20420;-76
2022/11/15 07:42:53;;;;;;;9.50;4.63;;;8.00;99.90;;;7.26;100.00;96930.06;5109058;28;20428;-76
2022/11/15 07:45:20;;;;;;;11.77;5.00;;;8.10;99.90;;;7.45;100.00;96928.75;5109140;28;20957;-76
2022/11/15 07:47:46;;;;;;;9.80;4.03;;;8.40;99.90;;;7.63;100.00;96919.78;5104496;28;20718;-78
2022/11/15 07:50:12;;;;;;;7.25;4.00;;;8.50;99.90;;;7.68;100.00;96915.34;5109467;28;20396;-77
2022/11/15 07:52:38;;;;;;;11.90;4.10;;;8.60;99.90;;;7.55;100.00;96923.63;5109003;28;20413;-76
2022/11/15 07:55:06;;;;;;;6.72;3.95;;;8.50;99.90;;;7.64;100.00;96919.53;5106986;28;20465;-77
2022/11/15 07:57:32;;;;;;;8.95;4.10;;;8.60;99.90;;;7.61;100.00;96908.69;5107558;28;20917;-76
2022/11/15 07:59:58;;;;;;;7.25;4.00;;;8.60;99.90;;;7.85;100.00;96917.94;5110372;28;20503;-76
2022/11/15 08:02:25;;;;;;;8.57;4.15;;;8.70;99.90;;;7.90;100.00;96918.00;5112750;28;20396;-77
2022/11/15 08:04:51;;;;;;;8.25;3.60;;;8.80;99.90;;;7.88;100.00;96912.19;5110673;28;20403;-78
2022/11/15 08:07:17;;;;;;;5.95;3.42;;;8.80;99.90;;;8.00;100.00;96909.44;5113446;28;20401;-77
2022/11/15 08:09:43;;;;;;;4.15;3.33;;;8.90;99.90;;;8.13;100.00;96904.56;5113397;28;20457;-77
2022/11/15 08:12:08;;;;;;;6.95;3.65;;;9.10;99.90;;;8.08;100.00;96909.81;5111211;28;20792;-80
2022/11/15 08:14:35;;;;;;;11.60;3.55;;;9.10;99.90;;;7.92;100.00;96909.84;5114980;27;20828;-79
2022/11/15 08:17:01;;;;;;;6.70;3.47;;;9.00;99.90;;;7.99;100.00;96905.19;5110939;28;20858;-79
2022/11/15 08:19:28;;;;;;;7.38;3.38;;;9.00;99.90;;;7.98;100.00;96903.59;5111962;28;20483;-78
2022/11/15 08:21:54;;;;;;;6.80;3.53;;;9.00;99.90;;;8.04;100.00;96906.03;5112488;28;20836;-79
2022/11/15 08:24:20;;;;;;;5.30;2.97;;;9.00;99.90;;;8.11;100.00;96906.69;5112243;28;20392;-77
2022/11/15 08:26:46;;;;;;;4.97;2.92;;;9.10;99.90;;;8.14;100.00;96897.47;5112752;28;20415;-79
2022/11/15 08:29:12;;;;;;;5.47;2.83;;;9.10;99.90;;;8.09;100.00;96892.94;5110177;28;20479;-78
2022/11/15 08:31:38;;;;;;;6.10;3.40;;;9.10;99.90;;;8.14;100.00;96893.00;5108987;28;20811;-77
2022/11/15 08:34:05;;;;;;;4.13;3.00;;;9.10;99.90;;;8.30;100.00;96893.16;5112357;28;20881;-80
2022/11/15 08:36:32;;;;;;;8.20;3.30;;;9.20;99.90;;;8.28;100.00;96887.31;5112854;28;20392;-85
2022/11/15 08:38:58;;;;;;;5.85;3.22;;;9.20;99.90;;;8.43;100.00;96890.94;5112814;28;20892;-78
2022/11/15 08:41:30;;;;;;;5.90;2.95;;;9.40;99.90;;;8.60;100.00;96880.28;5112917;28;20408;-78
2022/11/15 08:43:55;;;;;;;13.00;3.20;;;9.50;99.90;;;8.58;100.00;96879.75;5111883;28;20417;-80
2022/11/15 08:46:21;;;;;;;6.50;2.92;;;9.50;99.90;;;8.81;100.00;96875.97;5112505;28;20413;-79
2022/11/15 08:48:47;;;;;;;5.85;3.35;;;9.60;99.90;;;8.90;100.00;96877.91;5112617;28;20411;-81
2022/11/15 08:51:14;;;;;;;7.73;3.47;;;9.80;99.90;;;9.06;100.00;96868.25;5112781;28;20392;-81
2022/11/15 08:53:42;;;;;;;6.57;3.30;;;9.90;99.90;;;9.43;100.00;96867.41;5111639;27;20735;-75
2022/11/15 08:56:09;;;;;;;7.20;2.90;;;10.30;99.90;;;9.39;100.00;96863.72;5112497;27;20420;-85
2022/11/15 08:58:35;;;;;;;7.32;3.22;;;10.20;99.90;;;9.56;100.00;96862.47;5112594;28;20762;-82
2022/11/15 09:01:01;;;;;;;5.45;2.75;;;10.50;99.90;;;9.74;100.00;96858.59;5112604;28;20407;-78
2022/11/15 09:03:27;;;;;;;7.38;3.15;;;10.60;99.90;;;10.03;100.00;96858.97;5111756;28;20800;-79
2022/11/15 09:05:55;;;;;;;4.88;3.03;;;10.80;99.90;;;10.28;100.00;96859.06;5110877;28;20465;-80
2022/11/15 09:08:21;;;;;;;4.30;2.63;;;11.10;99.90;;;10.22;100.00;96865.41;5112036;28;20484;-78
2022/11/15 09:10:48;;;;;;;4.28;2.70;;;11.10;99.90;;;10.38;100.00;96864.34;5111983;28;20404;-79
2022/11/15 09:13:15;;;;;;;3.77;2.50;;;11.20;99.90;;;10.46;100.00;96857.75;5110876;28;20409;-84
2022/11/15 09:15:41;;;;;;;6.15;2.33;;;11.30;99.90;;;10.77;100.00;96846.13;5111829;28;20431;-79
2022/11/15 09:18:07;;;;;;;5.55;2.60;;;11.60;99.90;;;10.94;100.00;96850.38;5110876;28;20405;-78
2022/11/15 09:20:33;;;;;;;7.38;2.95;;;11.70;99.90;;;10.95;100.00;96847.47;5106809;28;20440;-81
2022/11/15 09:23:00;;;;;;;3.88;2.28;;;11.80;99.90;;;11.30;100.00;96851.91;5105239;28;20989;-82
2022/11/15 09:28:00;;;;;;;3.78;2.45;;;12.20;99.90;;;11.10;100.00;96852.75;5079456;28;20427;-75
2022/11/15 09:30:26;;;;;;;5.47;2.77;;;12.00;99.90;;;11.10;100.00;96854.59;5087076;28;20414;-76
2022/11/15 09:32:52;;;;;;;4.57;2.45;;;11.90;99.90;;;11.27;100.00;96849.00;5085615;28;20497;-77
2022/11/15 09:35:20;;;;;;;6.00;2.72;;;12.00;99.90;;;11.43;100.00;96846.03;5084992;28;20900;-79
2022/11/15 09:37:46;;;;;;;5.15;2.22;;;12.20;99.90;;;11.76;100.00;96844.66;5057584;28;20794;-78
2022/11/15 09:40:20;;;;;;;4.10;2.30;;;12.50;99.90;;;12.28;100.00;96852.06;5065483;28;20490;-77
2022/11/15 09:43:27;;;;;;;4.28;2.55;;;12.90;99.90;;;12.89;100.00;96849.00;5062867;28;20403;-77
2022/11/15 09:46:08;;;;;;;4.75;2.60;;;13.40;99.90;;;13.05;100.00;96844.34;5062065;28;20770;-77
2022/11/15 09:48:52;;;;;;;5.07;2.30;;;13.70;99.90;;;13.41;100.00;96840.28;5063334;28;20411;-78
2022/11/15 09:51:30;;;;;;;4.45;2.28;;;14.00;99.90;;;13.48;100.00;96842.63;5063729;28;20394;-77
2022/11/15 09:54:04;;;;;;;3.17;2.05;;;14.10;99.90;;;13.52;100.00;96838.31;5059946;28;20398;-79
2022/11/15 09:56:32;;;;;;;3.10;2.10;;;14.20;99.90;;;13.64;100.00;96835.25;5062018;28;20408;-76
2022/11/15 09:59:31;;;;;;;5.38;2.70;;;14.30;99.90;;;13.34;100.00;96836.38;5062703;28;20400;-77
2022/11/15 10:02:08;;;;;;;6.47;2.35;;;14.10;99.90;;;13.17;100.00;96834.94;5043897;28;20410;-78
2022/11/15 10:04:36;;;;;;;4.13;2.42;;;13.90;99.90;;;13.01;100.00;96825.50;5058247;28;20412;-82
2022/11/15 10:07:15;;;;;;;6.18;2.28;;;13.80;99.90;;;12.53;100.00;96821.13;5060184;28;20972;-80
2022/11/15 10:09:49;;;;;;;7.25;2.17;;;13.40;99.90;;;12.56;100.00;96818.69;5062376;28;20735;-77
2022/11/15 10:12:17;;;;;;;5.10;2.07;;;13.30;99.90;;;12.38;100.00;96830.00;5061152;28;20935;-78
2022/11/15 10:14:48;;;;;;;3.47;2.20;;;13.20;99.90;;;12.36;100.00;96822.31;5040796;28;20421;-74
2022/11/15 10:18:15;;;;;;;5.97;2.28;;;13.10;99.90;;;12.31;100.00;96819.69;5060807;28;20398;-79
2022/11/15 10:20:52;;;;;;;4.15;2.03;;;13.10;99.90;;;12.15;100.00;96817.41;5029464;28;20799;-76
2022/11/15 10:23:26;;;;;;;3.70;2.10;;;13.00;99.90;;;12.01;100.00;96807.41;5039954;28;20409;-77
2022/11/15 10:25:58;;;;;;;4.07;2.30;;;12.90;99.90;;;12.18;100.00;96808.91;5063050;28;20479;-77
2022/11/15 10:28:29;;;;;;;5.97;2.25;;;12.90;99.90;;;12.00;100.00;96802.38;5062635;28;20947;-76
2022/11/15 10:30:59;;;;;;;3.70;1.77;;;12.80;99.90;;;12.07;100.00;96802.06;5062780;28;20406;-77
2022/11/15 10:33:35;;;;;;;3.63;1.97;;;12.80;99.90;;;11.97;100.00;96801.03;5058875;28;20485;-78
2022/11/15 10:36:25;;;;;;;5.03;1.85;;;12.80;99.90;;;11.95;100.00;96797.09;5060005;28;20492;-78
2022/11/15 10:38:55;;;;;;;3.55;2.00;;;12.70;99.90;;;12.11;100.00;96793.28;5060871;28;20948;-77
2022/11/15 10:41:34;;;;;;;3.80;2.00;;;12.90;99.90;;;12.09;100.00;96794.63;5069935;28;20396;-76
2022/11/15 10:44:24;;;;;;;4.38;2.03;;;12.80;99.90;;;12.06;100.00;96790.66;5069160;28;20408;-75